createdAt,value
2018-01-20T00:01:01.685Z,48.70
2018-01-20T00:03:29.696Z,48.80
2018-01-20T00:05:57.744Z,48.80
2018-01-20T00:08:26.639Z,48.80
2018-01-20T00:11:18.222Z,48.80
2018-01-20T00:13:46.248Z,48.80
2018-01-20T00:16:14.287Z,48.80
2018-01-20T00:18:43.063Z,48.90
2018-01-20T00:21:11.196Z,48.80
2018-01-20T00:23:39.225Z,48.90
2018-01-20T00:26:13.657Z,48.90
2018-01-20T00:28:41.726Z,48.90
2018-01-20T00:31:09.752Z,48.90
2018-01-20T00:33:37.779Z,48.90
2018-01-20T00:36:05.792Z,48.90
2018-01-20T00:38:33.828Z,48.80
2018-01-20T00:41:01.828Z,48.80
2018-01-20T00:43:29.854Z,48.90
2018-01-20T00:45:57.877Z,48.90
2018-01-20T00:48:25.926Z,48.90
2018-01-20T00:50:53.978Z,48.90
2018-01-20T00:53:21.988Z,48.90
2018-01-20T00:55:50.011Z,48.90
2018-01-20T00:58:18.026Z,48.90
2018-01-20T01:00:46.062Z,48.90
2018-01-20T01:03:14.140Z,48.90
2018-01-20T01:05:42.160Z,49.50
2018-01-20T01:08:10.936Z,48.90
2018-01-20T01:10:38.961Z,48.90
2018-01-20T01:13:07.018Z,48.80
2018-01-20T01:15:35.032Z,48.90
2018-01-20T01:18:03.081Z,48.80
2018-01-20T01:20:31.110Z,48.80
2018-01-20T01:22:59.912Z,48.70
2018-01-20T01:25:27.922Z,48.80
2018-01-20T01:27:55.947Z,48.80
2018-01-20T01:30:23.968Z,48.80
2018-01-20T01:32:51.979Z,48.70
2018-01-20T01:35:20.769Z,48.80
2018-01-20T01:37:48.789Z,48.80
2018-01-20T01:40:16.816Z,48.80
2018-01-20T01:42:44.824Z,48.80
2018-01-20T01:45:12.847Z,48.80
2018-01-20T01:47:41.631Z,48.80
2018-01-20T01:50:10.419Z,48.80
2018-01-20T01:52:39.200Z,48.80
2018-01-20T01:55:08.009Z,48.90
2018-01-20T01:57:36.054Z,48.70
2018-01-20T02:00:04.928Z,48.90
2018-01-20T02:02:32.961Z,48.90
2018-01-20T02:05:01.009Z,48.90
2018-01-20T02:07:29.038Z,48.90
2018-01-20T02:09:57.061Z,48.90
2018-01-20T02:12:25.089Z,49.00
2018-01-20T02:14:53.161Z,49.00
2018-01-20T02:17:21.189Z,49.10
2018-01-20T02:19:49.204Z,49.10
2018-01-20T02:22:17.993Z,49.20
2018-01-20T02:24:46.787Z,49.30
2018-01-20T02:27:15.617Z,49.90
2018-01-20T02:29:43.632Z,49.20
2018-01-20T02:32:11.681Z,49.40
2018-01-20T02:34:39.705Z,49.80
2018-01-20T02:37:07.712Z,49.40
2018-01-20T02:39:35.756Z,49.40
2018-01-20T02:42:03.776Z,49.40
2018-01-20T02:44:31.774Z,49.50
2018-01-20T02:47:00.565Z,49.50
2018-01-20T02:49:28.618Z,49.50
2018-01-20T02:51:57.436Z,49.60
2018-01-20T02:54:25.451Z,49.60
2018-01-20T02:56:53.471Z,49.60
2018-01-20T02:59:21.487Z,49.60
2018-01-20T03:01:49.517Z,49.60
2018-01-20T03:04:17.580Z,49.50
2018-01-20T03:06:45.601Z,49.60
2018-01-20T03:09:13.612Z,49.50
2018-01-20T03:11:41.637Z,49.60
2018-01-20T03:14:09.657Z,49.60
2018-01-20T03:16:37.668Z,49.60
2018-01-20T03:19:05.708Z,49.70
2018-01-20T03:21:33.781Z,49.70
2018-01-20T03:24:01.836Z,49.70
2018-01-20T03:26:29.848Z,49.70
2018-01-20T03:28:57.875Z,49.70
2018-01-20T03:31:26.656Z,49.80
2018-01-20T03:33:55.449Z,49.80
2018-01-20T03:36:24.290Z,49.80
2018-01-20T03:38:53.072Z,49.80
2018-01-20T03:41:21.887Z,49.90
2018-01-20T03:43:49.905Z,49.90
2018-01-20T03:46:17.938Z,49.90
2018-01-20T03:48:46.724Z,50.00
2018-01-20T03:51:14.752Z,50.00
2018-01-20T03:53:42.776Z,50.00
2018-01-20T03:56:11.549Z,50.00
2018-01-20T03:58:39.600Z,50.00
2018-01-20T04:01:07.632Z,50.10
2018-01-20T04:03:35.688Z,50.10
2018-01-20T04:06:03.750Z,50.00
2018-01-20T04:08:32.549Z,50.00
2018-01-20T04:11:00.586Z,50.10
2018-01-20T04:13:28.599Z,50.10
2018-01-20T04:15:56.602Z,50.10
2018-01-20T04:18:24.620Z,50.10
2018-01-20T04:20:53.413Z,50.20
2018-01-20T04:23:21.460Z,50.20
2018-01-20T04:25:50.278Z,50.20
2018-01-20T04:28:18.298Z,50.20
2018-01-20T04:30:46.365Z,50.20
2018-01-20T04:33:14.404Z,50.30
2018-01-20T04:35:42.456Z,50.30
2018-01-20T04:38:10.477Z,50.30
2018-01-20T04:40:38.524Z,50.30
2018-01-20T04:43:06.618Z,50.40
2018-01-20T04:45:34.641Z,50.40
2018-01-20T04:48:02.674Z,50.40
2018-01-20T04:50:30.694Z,50.50
2018-01-20T04:52:58.698Z,50.50
2018-01-20T04:55:26.795Z,50.50
2018-01-20T04:57:55.589Z,50.60
2018-01-20T05:00:24.440Z,50.60
2018-01-20T05:02:52.460Z,50.50
2018-01-20T05:05:20.516Z,50.50
2018-01-20T05:07:49.304Z,50.50
2018-01-20T05:10:18.122Z,50.50
2018-01-20T05:12:46.132Z,50.60
2018-01-20T05:15:14.153Z,50.50
2018-01-20T05:17:42.166Z,50.60
2018-01-20T05:20:10.185Z,50.60
2018-01-20T05:22:38.965Z,50.60
2018-01-20T05:25:07.734Z,50.60
2018-01-20T05:27:35.738Z,50.60
2018-01-20T05:30:03.820Z,50.60
2018-01-20T05:32:31.842Z,50.60
2018-01-20T05:34:59.861Z,50.60
2018-01-20T05:37:27.866Z,50.50
2018-01-20T05:39:55.890Z,50.50
2018-01-20T05:42:23.908Z,50.50
2018-01-20T05:44:51.898Z,50.50
2018-01-20T05:47:19.961Z,50.50
2018-01-20T05:49:47.990Z,50.50
2018-01-20T05:52:16.004Z,50.50
2018-01-20T05:54:44.025Z,50.40
2018-01-20T05:57:12.069Z,50.50
2018-01-20T05:59:40.869Z,50.40
2018-01-20T06:02:08.910Z,50.40
2018-01-20T06:04:36.945Z,50.30
2018-01-20T06:07:04.985Z,50.30
2018-01-20T06:09:33.042Z,50.30
2018-01-20T06:12:01.058Z,50.30
2018-01-20T06:14:29.094Z,50.20
2018-01-20T06:16:57.106Z,50.20
2018-01-20T06:19:25.130Z,50.20
2018-01-20T06:21:53.171Z,50.20
2018-01-20T06:24:21.947Z,50.30
2018-01-20T06:26:49.969Z,50.30
2018-01-20T06:29:17.981Z,50.20
2018-01-20T06:31:46.026Z,50.10
2018-01-20T06:34:14.051Z,50.10
2018-01-20T06:36:42.818Z,50.20
2018-01-20T06:39:10.808Z,50.20
2018-01-20T06:41:39.559Z,50.20
2018-01-20T06:44:07.550Z,50.20
2018-01-20T06:46:35.581Z,50.20
2018-01-20T06:49:03.595Z,50.20
2018-01-20T06:51:32.415Z,50.10
2018-01-20T06:54:00.469Z,50.10
2018-01-20T06:56:29.245Z,50.10
2018-01-20T06:58:58.137Z,50.10
2018-01-20T07:01:26.929Z,50.20
2018-01-20T07:03:55.761Z,50.20
2018-01-20T07:06:23.838Z,50.20
2018-01-20T07:08:51.836Z,50.20
2018-01-20T07:11:19.839Z,50.20
2018-01-20T07:13:47.857Z,50.20
2018-01-20T07:16:15.926Z,50.20
2018-01-20T07:18:43.987Z,50.20
2018-01-20T07:21:11.989Z,50.30
2018-01-20T07:23:39.997Z,50.30
2018-01-20T07:26:08.031Z,50.20
2018-01-20T07:28:36.050Z,50.30
2018-01-20T07:31:04.139Z,50.20
2018-01-20T07:33:32.146Z,50.30
2018-01-20T07:36:00.164Z,50.30
2018-01-20T07:38:28.229Z,50.90
2018-01-20T07:40:56.245Z,50.30
2018-01-20T07:43:24.243Z,50.30
2018-01-20T07:45:53.041Z,50.40
2018-01-20T07:48:21.070Z,50.40
2018-01-20T07:50:49.125Z,50.40
2018-01-20T07:53:17.174Z,50.40
2018-01-20T07:55:45.188Z,50.40
2018-01-20T07:58:13.245Z,50.50
2018-01-20T08:00:41.326Z,50.50
2018-01-20T08:03:09.361Z,50.50
2018-01-20T08:05:37.400Z,50.60
2018-01-20T08:08:06.187Z,50.70
2018-01-20T08:10:34.174Z,50.60
2018-01-20T08:13:03.727Z,50.60
2018-01-20T08:15:32.711Z,50.70
2018-01-20T08:18:00.750Z,50.70
2018-01-20T08:20:28.771Z,50.70
2018-01-20T08:22:56.806Z,50.70
2018-01-20T08:25:24.809Z,50.70
2018-01-20T08:27:52.802Z,50.80
2018-01-20T08:30:21.588Z,50.80
2018-01-20T08:32:50.333Z,50.90
2018-01-20T08:35:18.348Z,50.90
2018-01-20T08:37:47.161Z,50.90
2018-01-20T08:40:15.170Z,50.90
2018-01-20T08:42:43.182Z,50.90
2018-01-20T08:45:11.179Z,50.90
2018-01-20T08:47:39.217Z,51.00
2018-01-20T08:50:07.263Z,51.00
2018-01-20T08:52:35.274Z,51.00
2018-01-20T08:55:03.367Z,51.00
2018-01-20T08:57:31.398Z,51.10
2018-01-20T09:00:00.183Z,51.10
2018-01-20T09:02:28.959Z,51.10
2018-01-20T09:04:57.735Z,51.10
2018-01-20T09:07:25.739Z,51.10
2018-01-20T09:09:53.738Z,51.80
2018-01-20T09:12:21.763Z,51.20
2018-01-20T09:14:50.545Z,51.40
2018-01-20T09:17:19.350Z,52.00
2018-01-20T09:19:47.350Z,51.40
2018-01-20T09:22:15.365Z,51.40
2018-01-20T09:24:43.359Z,51.30
2018-01-20T09:27:11.396Z,51.40
2018-01-20T09:29:39.486Z,51.40
2018-01-20T09:32:08.320Z,51.40
2018-01-20T09:34:36.321Z,51.40
2018-01-20T09:37:04.360Z,51.50
2018-01-20T09:39:32.368Z,51.40
2018-01-20T09:42:00.336Z,51.50
2018-01-20T09:44:28.331Z,51.50
2018-01-20T09:46:57.110Z,51.50
2018-01-20T09:49:25.887Z,51.60
2018-01-20T09:51:53.954Z,51.60
2018-01-20T09:54:21.954Z,51.60
2018-01-20T09:56:49.978Z,52.20
2018-01-20T09:59:17.997Z,51.60
2018-01-20T10:01:46.080Z,51.60
2018-01-20T10:04:14.079Z,51.60
2018-01-20T10:06:42.079Z,51.60
2018-01-20T10:09:10.845Z,51.60
2018-01-20T10:11:38.869Z,51.60
2018-01-20T10:14:06.886Z,51.60
2018-01-20T10:16:34.934Z,51.60
2018-01-20T10:19:02.936Z,51.60
2018-01-20T10:21:30.955Z,51.60
2018-01-20T10:23:59.006Z,51.60
2018-01-20T10:26:27.002Z,51.50
2018-01-20T10:28:55.057Z,51.50
2018-01-20T10:31:23.081Z,51.40
2018-01-20T10:33:51.106Z,51.40
2018-01-20T10:36:19.126Z,51.40
2018-01-20T10:38:47.211Z,51.40
2018-01-20T10:41:15.993Z,51.40
2018-01-20T10:43:44.000Z,51.40
2018-01-20T10:46:12.028Z,51.30
2018-01-20T10:48:40.055Z,51.30
2018-01-20T10:51:08.084Z,51.30
2018-01-20T10:53:36.919Z,51.30
2018-01-20T10:56:04.934Z,51.30
2018-01-20T10:58:33.699Z,51.30
2018-01-20T11:01:01.724Z,51.30
2018-01-20T11:03:29.735Z,51.20
2018-01-20T11:05:57.796Z,51.10
2018-01-20T11:08:25.792Z,51.10
2018-01-20T11:10:53.907Z,51.10
2018-01-20T11:13:21.937Z,50.60
2018-01-20T11:15:50.239Z,51.00
2018-01-20T11:18:18.567Z,51.00
2018-01-20T11:20:47.593Z,51.00
2018-01-20T11:23:15.909Z,51.00
2018-01-20T11:25:44.164Z,50.90
2018-01-20T11:28:12.342Z,50.80
2018-01-20T11:30:40.520Z,50.80
2018-01-20T11:33:08.696Z,50.80
2018-01-20T11:35:36.739Z,50.70
2018-01-20T11:38:05.569Z,49.80
2018-01-20T11:40:33.624Z,49.80
2018-01-20T11:43:01.638Z,49.70
2018-01-20T11:45:29.670Z,49.70
2018-01-20T11:47:57.690Z,49.60
2018-01-20T11:50:25.695Z,49.60
2018-01-20T11:52:53.956Z,49.60
2018-01-20T11:55:22.223Z,49.50
2018-01-20T11:57:50.427Z,49.40
2018-01-20T12:00:18.626Z,49.30
2018-01-20T12:02:46.927Z,49.20
2018-01-20T12:05:15.979Z,49.10
2018-01-20T12:07:44.144Z,49.10
2018-01-20T12:10:12.289Z,49.10
2018-01-20T12:12:40.425Z,49.00
2018-01-20T12:15:08.486Z,49.00
2018-01-20T12:20:04.805Z,49.00
2018-01-20T12:22:33.129Z,49.00
2018-01-20T12:25:02.299Z,49.10
2018-01-20T12:27:30.659Z,49.10
2018-01-20T12:30:00.640Z,49.30
2018-01-20T12:32:28.951Z,49.00
2018-01-20T12:34:57.316Z,49.00
2018-01-20T12:37:25.669Z,49.00
2018-01-20T12:39:54.083Z,49.00
2018-01-20T12:42:22.567Z,48.90
2018-01-20T12:44:50.677Z,48.90
2018-01-20T12:47:19.124Z,48.80
2018-01-20T12:49:47.510Z,48.80
2018-01-20T12:52:15.891Z,48.50
2018-01-20T12:54:44.315Z,48.50
2018-01-20T12:57:12.726Z,48.30
2018-01-20T12:59:41.130Z,48.10
2018-01-20T13:02:09.491Z,47.90
2018-01-20T13:04:37.841Z,47.70
2018-01-20T13:07:06.156Z,47.50
2018-01-20T13:09:34.510Z,47.30
2018-01-20T13:12:02.912Z,47.10
2018-01-20T13:14:31.235Z,46.90
2018-01-20T13:16:59.541Z,46.80
2018-01-20T13:19:27.899Z,46.60
2018-01-20T13:21:56.329Z,46.40
2018-01-20T13:24:24.758Z,46.30
2018-01-20T13:26:53.065Z,46.70
2018-01-20T13:29:21.180Z,45.80
2018-01-20T13:31:49.242Z,45.70
2018-01-20T13:34:17.250Z,45.50
2018-01-20T13:36:46.094Z,45.30
2018-01-20T13:39:14.118Z,45.20
2018-01-20T13:41:42.935Z,45.10
2018-01-20T13:44:10.964Z,45.10
2018-01-20T13:46:39.058Z,45.00
2018-01-20T13:49:07.835Z,44.80
2018-01-20T13:51:36.621Z,44.70
2018-01-20T13:54:05.442Z,44.50
2018-01-20T13:56:33.477Z,44.50
2018-01-20T13:59:02.262Z,44.40
2018-01-20T14:01:30.313Z,44.30
2018-01-20T14:03:58.369Z,44.30
2018-01-20T14:06:26.555Z,44.20
2018-01-20T14:08:54.578Z,44.00
2018-01-20T14:11:22.594Z,43.80
2018-01-20T14:13:50.626Z,43.70
2018-01-20T14:16:18.603Z,43.70
2018-01-20T14:18:46.621Z,43.60
2018-01-20T14:21:14.678Z,43.50
2018-01-20T14:23:42.699Z,43.40
2018-01-20T14:26:10.747Z,43.30
2018-01-20T14:28:39.549Z,43.20
2018-01-20T14:31:07.610Z,43.80
2018-01-20T14:33:36.482Z,43.10
2018-01-20T14:36:04.491Z,43.60
2018-01-20T14:38:32.482Z,42.90
2018-01-20T14:41:00.514Z,42.80
2018-01-20T14:43:29.290Z,42.70
2018-01-20T14:45:58.093Z,42.60
2018-01-20T14:48:26.157Z,42.60
2018-01-20T14:50:54.953Z,41.60
2018-01-20T14:53:23.055Z,41.60
2018-01-20T14:55:51.087Z,41.70
2018-01-20T14:58:19.914Z,41.60
2018-01-20T15:00:47.953Z,41.60
2018-01-20T15:03:16.074Z,41.60
2018-01-20T15:05:44.100Z,41.60
2018-01-20T15:08:12.146Z,41.50
2018-01-20T15:10:40.923Z,41.50
2018-01-20T15:13:08.947Z,41.50
2018-01-20T15:15:36.969Z,41.60
2018-01-20T15:18:04.979Z,41.60
2018-01-20T15:20:32.998Z,41.50
2018-01-20T15:23:01.074Z,41.60
2018-01-20T15:25:29.117Z,41.50
2018-01-20T15:27:57.173Z,41.50
2018-01-20T15:30:25.192Z,41.50
2018-01-20T15:32:54.003Z,41.60
2018-01-20T15:35:22.786Z,41.60
2018-01-20T15:37:50.798Z,41.60
2018-01-20T15:40:18.841Z,41.70
2018-01-20T15:42:46.913Z,41.70
2018-01-20T15:45:14.943Z,41.80
2018-01-20T15:47:42.915Z,41.80
2018-01-20T15:50:11.293Z,42.30
2018-01-20T15:52:40.129Z,42.00
2018-01-20T15:55:08.170Z,41.90
2018-01-20T15:57:36.963Z,42.10
2018-01-20T16:00:06.110Z,42.10
2018-01-20T16:02:34.121Z,42.10
2018-01-20T16:05:02.926Z,42.20
2018-01-20T16:07:31.002Z,42.30
2018-01-20T16:09:59.101Z,42.30
2018-01-20T16:12:27.171Z,42.30
2018-01-20T16:14:55.218Z,42.40
2018-01-20T16:17:23.230Z,42.50
2018-01-20T16:19:51.378Z,42.50
2018-01-20T16:22:19.756Z,42.60
2018-01-20T16:24:47.781Z,42.70
2018-01-20T16:27:16.997Z,42.80
2018-01-20T16:29:45.064Z,42.80
2018-01-20T16:32:13.109Z,42.90
2018-01-20T16:34:42.174Z,42.90
2018-01-20T16:37:10.375Z,43.10
2018-01-20T16:39:38.394Z,43.10
2018-01-20T16:42:06.490Z,43.50
2018-01-20T16:44:34.553Z,43.20
2018-01-20T16:47:02.622Z,43.30
2018-01-20T16:49:30.622Z,43.30
2018-01-20T16:51:58.677Z,43.40
2018-01-20T16:54:26.693Z,43.40
2018-01-20T16:56:55.546Z,43.60
2018-01-20T16:59:23.624Z,43.50
2018-01-20T17:01:51.775Z,43.50
2018-01-20T17:04:19.808Z,43.50
2018-01-20T17:06:47.844Z,43.60
2018-01-20T17:09:15.889Z,43.60
2018-01-20T17:11:43.931Z,44.10
2018-01-20T17:14:12.000Z,43.70
2018-01-20T17:16:40.049Z,43.70
2018-01-20T17:19:08.070Z,43.70
2018-01-20T17:21:36.150Z,43.80
2018-01-20T17:24:04.190Z,43.80
2018-01-20T17:26:32.300Z,43.90
2018-01-20T17:29:00.354Z,44.00
2018-01-20T17:31:28.430Z,44.00
2018-01-20T17:33:56.454Z,44.00
2018-01-20T17:36:24.538Z,44.00
2018-01-20T17:38:52.579Z,44.10
2018-01-20T17:41:21.367Z,44.10
2018-01-20T17:43:50.221Z,44.20
2018-01-20T17:46:18.356Z,44.10
2018-01-20T17:48:46.695Z,44.20
2018-01-20T17:51:15.573Z,44.30
2018-01-20T17:53:43.697Z,44.30
2018-01-20T17:56:11.874Z,44.30
2018-01-20T17:58:39.939Z,44.30
2018-01-20T18:01:08.858Z,44.40
2018-01-20T18:03:36.960Z,44.50
2018-01-20T18:06:06.381Z,45.30
2018-01-20T18:08:35.167Z,44.60
2018-01-20T18:11:03.209Z,44.60
2018-01-20T18:13:31.232Z,44.60
2018-01-20T18:15:59.254Z,44.60
2018-01-20T18:18:27.280Z,44.70
2018-01-20T18:20:55.314Z,44.80
2018-01-20T18:23:24.129Z,44.80
2018-01-20T18:25:52.367Z,44.80
2018-01-20T18:28:21.177Z,44.90
2018-01-20T18:30:49.946Z,44.90
2018-01-20T18:33:18.935Z,45.00
2018-01-20T18:35:49.256Z,45.50
2018-01-20T18:38:18.968Z,45.90
2018-01-20T18:40:47.242Z,45.90
2018-01-20T18:43:16.237Z,46.30
2018-01-20T18:45:45.087Z,46.00
2018-01-20T18:48:13.307Z,46.00
2018-01-20T18:50:42.290Z,46.10
2018-01-20T18:53:10.606Z,46.10
2018-01-20T18:55:38.845Z,46.10
2018-01-20T18:58:07.836Z,46.10
2018-01-20T19:00:36.828Z,46.20
2018-01-20T19:03:04.899Z,46.10
2018-01-20T19:05:32.945Z,46.10
2018-01-20T19:08:00.969Z,46.10
2018-01-20T19:10:29.225Z,46.10
2018-01-20T19:12:58.309Z,46.10
2018-01-20T19:15:27.305Z,46.10
2018-01-20T19:17:57.319Z,46.30
2018-01-20T19:20:25.598Z,46.10
2018-01-20T19:22:55.102Z,46.10
2018-01-20T19:25:24.524Z,46.10
2018-01-20T19:27:54.158Z,46.10
2018-01-20T19:30:22.390Z,46.10
2018-01-20T19:32:51.378Z,45.60
2018-01-20T19:35:19.656Z,46.10
2018-01-20T19:37:48.648Z,46.10
2018-01-20T19:40:16.921Z,46.10
2018-01-20T19:42:45.198Z,46.00
2018-01-20T19:45:14.398Z,46.10
2018-01-20T19:47:42.401Z,46.10
2018-01-20T19:50:10.642Z,46.10
2018-01-20T19:52:38.834Z,46.10
2018-01-20T19:55:07.834Z,46.10
2018-01-20T19:57:36.593Z,46.10
2018-01-20T20:00:04.974Z,46.20
2018-01-20T20:02:33.248Z,46.90
2018-01-20T20:05:02.040Z,46.20
2018-01-20T20:07:30.113Z,46.20
2018-01-20T20:09:59.100Z,46.20
2018-01-20T20:12:27.129Z,46.20
2018-01-20T20:14:55.347Z,46.50
2018-01-20T20:17:23.620Z,46.20
2018-01-20T20:19:51.896Z,46.20
2018-01-20T20:22:20.175Z,46.20
2018-01-20T20:24:48.448Z,46.50
2018-01-20T20:27:16.759Z,46.30
2018-01-20T20:29:45.000Z,46.30
2018-01-20T20:32:13.998Z,46.20
2018-01-20T20:34:42.989Z,46.10
2018-01-20T20:37:11.263Z,46.20
2018-01-20T20:39:39.536Z,46.10
2018-01-20T20:42:08.534Z,46.50
2018-01-20T20:44:36.804Z,46.10
2018-01-20T20:47:05.085Z,46.10
2018-01-20T20:49:33.357Z,46.20
2018-01-20T20:52:01.631Z,46.20
2018-01-20T20:54:29.800Z,46.10
2018-01-20T20:56:58.082Z,46.20
2018-01-20T20:59:26.263Z,46.10
2018-01-20T21:01:55.252Z,46.90
2018-01-20T21:04:23.528Z,46.10
2018-01-20T21:06:52.314Z,46.40
2018-01-20T21:09:20.591Z,46.20
2018-01-20T21:11:48.864Z,46.10
2018-01-20T21:14:17.859Z,46.10
2018-01-20T21:16:46.136Z,46.10
2018-01-20T21:19:14.309Z,46.80
2018-01-20T21:21:42.584Z,46.60
2018-01-20T21:24:10.865Z,46.60
2018-01-20T21:26:39.137Z,46.10
2018-01-20T21:29:07.409Z,46.00
2018-01-20T21:31:35.685Z,46.10
2018-01-20T21:34:03.964Z,46.10
2018-01-20T21:36:32.852Z,46.10
2018-01-20T21:39:00.925Z,46.50
2018-01-20T21:41:29.201Z,46.10
2018-01-20T21:43:58.191Z,46.60
2018-01-20T21:46:26.473Z,46.00
2018-01-20T21:48:55.463Z,46.20
2018-01-20T21:51:23.738Z,46.20
2018-01-20T21:53:51.742Z,46.30
2018-01-20T21:56:19.983Z,46.90
2018-01-20T21:58:48.152Z,46.40
2018-01-20T22:01:16.433Z,46.50
2018-01-20T22:03:44.605Z,46.50
2018-01-20T22:06:12.774Z,46.60
2018-01-20T22:08:40.895Z,46.50
2018-01-20T22:11:09.123Z,46.60
2018-01-20T22:13:37.402Z,47.30
2018-01-20T22:16:05.575Z,46.70
2018-01-20T22:18:33.848Z,47.20
2018-01-20T22:21:01.990Z,46.50
2018-01-20T22:23:30.093Z,46.80
2018-01-20T22:25:58.371Z,46.90
2018-01-20T22:28:26.647Z,46.90
2018-01-20T22:30:54.822Z,46.90
2018-01-20T22:33:22.990Z,46.60
2018-01-20T22:35:51.165Z,47.00
2018-01-20T22:38:19.442Z,46.90
2018-01-20T22:40:47.716Z,47.00
2018-01-20T22:43:15.992Z,47.00
2018-01-20T22:45:44.269Z,47.10
2018-01-20T22:48:12.381Z,47.10
2018-01-20T22:50:40.617Z,47.10
2018-01-20T22:53:08.894Z,47.10
2018-01-20T22:55:37.888Z,47.20
2018-01-20T22:58:06.980Z,47.20
2018-01-20T23:00:35.255Z,47.20
2018-01-20T23:03:03.531Z,47.20
2018-01-20T23:05:31.810Z,47.20
2018-01-20T23:08:00.082Z,47.20
2018-01-20T23:10:29.079Z,47.20
2018-01-20T23:12:58.170Z,47.10
2018-01-20T23:15:27.269Z,47.10
2018-01-20T23:17:55.544Z,47.20
2018-01-20T23:20:24.535Z,47.60
2018-01-20T23:22:52.810Z,47.20
2018-01-20T23:25:21.818Z,47.30
2018-01-20T23:27:50.795Z,47.40
2018-01-20T23:30:20.608Z,47.40
2018-01-20T23:32:49.394Z,47.40
2018-01-20T23:35:18.387Z,47.50
2018-01-20T23:37:46.665Z,47.50
2018-01-20T23:40:14.941Z,47.60
2018-01-20T23:42:43.217Z,47.60
2018-01-20T23:45:11.497Z,47.70
2018-01-20T23:47:39.772Z,47.80
2018-01-20T23:50:08.044Z,47.80
2018-01-20T23:52:36.324Z,47.90
2018-01-20T23:55:05.104Z,47.90
2018-01-20T23:57:33.384Z,47.90
